createdAt,value
2023-01-13T07:50:11.684Z,99253.34
2023-01-13T07:52:38.183Z,99261.03
2023-01-13T07:55:05.131Z,99254.41
2023-01-13T07:57:31.581Z,99256.91
2023-01-13T07:59:58.113Z,99279.38
2023-01-13T08:02:24.747Z,99288.34
2023-01-13T08:04:51.373Z,99291.19
2023-01-13T08:07:17.810Z,99297.63
2023-01-13T08:09:44.244Z,99297.63
2023-01-13T08:12:29.097Z,99300.91
2023-01-13T08:14:55.574Z,99301.44
2023-01-13T08:17:22.256Z,99302.56
2023-01-13T08:19:48.757Z,99320.59
2023-01-13T08:22:15.653Z,99326.38
2023-01-13T08:24:42.085Z,99338.28
2023-01-13T08:27:08.555Z,99342.81
2023-01-13T08:29:34.977Z,99352.72
2023-01-13T08:32:01.477Z,99348.94
2023-01-13T08:34:27.915Z,99353.66
2023-01-13T08:36:54.604Z,99355.13
2023-01-13T08:39:21.019Z,99365.50
2023-01-13T08:41:56.519Z,99354.94
2023-01-13T08:44:24.578Z,99361.06
2023-01-13T08:46:50.966Z,99374.56
2023-01-13T08:49:17.768Z,99378.97
2023-01-13T08:51:44.303Z,99377.25
2023-01-13T08:54:11.351Z,99387.50
2023-01-13T08:56:38.973Z,99389.84
2023-01-13T08:59:05.943Z,99388.59
2023-01-13T09:01:33.868Z,99401.56
2023-01-13T09:04:00.442Z,99387.13
2023-01-13T09:06:26.907Z,99388.19
2023-01-13T09:08:53.388Z,99385.25
2023-01-13T09:11:49.678Z,99385.13
2023-01-13T09:14:23.684Z,99390.72
2023-01-13T09:16:50.201Z,99391.38
2023-01-13T09:19:16.622Z,99379.06
2023-01-13T09:21:43.042Z,99385.03
2023-01-13T09:24:09.662Z,99389.25
2023-01-13T09:26:37.569Z,99394.44
2023-01-13T09:29:04.427Z,99402.88
2023-01-13T09:31:34.370Z,99399.28
2023-01-13T09:34:25.118Z,99398.88
2023-01-13T09:36:51.814Z,99397.53
2023-01-13T09:39:18.516Z,99392.13
2023-01-13T09:42:06.615Z,99395.41
2023-01-13T09:45:05.089Z,99414.59
2023-01-13T09:47:37.556Z,99415.66
2023-01-13T09:50:28.046Z,99412.72
2023-01-13T09:52:54.511Z,99420.72
2023-01-13T09:55:32.950Z,99419.88
2023-01-13T09:58:02.372Z,99419.03
2023-01-13T10:00:36.397Z,99423.16
2023-01-13T10:03:20.629Z,99418.75
2023-01-13T10:05:57.623Z,99426.66
2023-01-13T10:08:28.192Z,99419.59
2023-01-13T10:10:57.636Z,99417.78
2023-01-13T10:13:29.137Z,99416.09
2023-01-13T10:16:03.419Z,99413.47
2023-01-13T10:18:49.962Z,99409.31
2023-01-13T10:21:40.452Z,99405.97
2023-01-13T10:24:18.990Z,99413.13
2023-01-13T10:26:58.944Z,99403.75
2023-01-13T10:29:30.090Z,99409.84
2023-01-13T10:31:58.141Z,99399.19
2023-01-13T10:34:25.580Z,99408.69
2023-01-13T10:37:08.512Z,99405.97
2023-01-13T10:39:43.952Z,99395.19
2023-01-13T10:42:15.947Z,99396.13
2023-01-13T10:45:17.268Z,99398.13
2023-01-13T10:47:43.709Z,99391.09
2023-01-13T10:50:13.057Z,99399.00
2023-01-13T10:52:42.979Z,99404.03
2023-01-13T10:55:26.652Z,99402.91
2023-01-13T10:57:53.096Z,99393.50
2023-01-13T11:00:26.828Z,99394.66
2023-01-13T11:03:12.659Z,99393.59
2023-01-13T11:05:39.157Z,99388.22
2023-01-13T11:08:05.704Z,99381.72
2023-01-13T11:10:33.261Z,99382.25
2023-01-13T11:13:28.079Z,99378.66
2023-01-13T11:16:01.267Z,99389.00
2023-01-13T11:18:51.624Z,99382.66
2023-01-13T11:21:29.977Z,99401.75
2023-01-13T11:24:09.689Z,99387.81
2023-01-13T11:26:47.219Z,99406.50
2023-01-13T11:29:31.196Z,99402.94
2023-01-13T11:32:10.320Z,99411.56
2023-01-13T11:34:39.775Z,99419.38
2023-01-13T11:37:23.087Z,99411.56
2023-01-13T11:39:56.111Z,99420.75
2023-01-13T11:42:26.719Z,99420.22
2023-01-13T11:45:17.411Z,99434.16
2023-01-13T11:47:46.584Z,99430.97
2023-01-13T11:50:16.295Z,99421.47
2023-01-13T11:52:53.665Z,99428.41
2023-01-13T11:55:29.335Z,99425.38
2023-01-13T11:58:24.595Z,99432.34
2023-01-13T12:01:23.479Z,99427.81
2023-01-13T12:04:01.011Z,99423.75
2023-01-13T12:06:38.206Z,99427.66
2023-01-13T12:09:30.239Z,99416.44
2023-01-13T12:12:22.711Z,99426.81
2023-01-13T12:15:13.738Z,99428.41
2023-01-13T12:18:11.477Z,99437.50
2023-01-13T12:21:01.332Z,99441.84
2023-01-13T12:24:10.631Z,99433.72
2023-01-13T12:26:43.838Z,99445.16
2023-01-13T12:29:19.540Z,99446.63
2023-01-13T12:31:50.078Z,99440.16
2023-01-13T12:34:24.075Z,99443.19
2023-01-13T12:37:08.651Z,99442.25
2023-01-13T12:39:48.273Z,99420.94
2023-01-13T12:43:10.281Z,99437.00
2023-01-13T12:45:36.759Z,99441.00
2023-01-13T12:48:04.956Z,99426.16
2023-01-13T12:50:31.292Z,99434.16
2023-01-13T12:52:58.731Z,99433.31
2023-01-13T12:55:25.267Z,99432.38
2023-01-13T12:58:10.175Z,99435.44
2023-01-13T13:00:39.341Z,99446.41
2023-01-13T13:03:12.100Z,99434.47
2023-01-13T13:05:44.809Z,99437.63
2023-01-13T13:08:14.532Z,99441.63
2023-01-13T13:10:47.767Z,99444.72
2023-01-13T13:13:39.544Z,99447.56
2023-01-13T13:16:36.269Z,99458.00
2023-01-13T13:19:18.055Z,99458.75
2023-01-13T13:22:09.792Z,99448.94
2023-01-13T13:24:36.305Z,99441.84
2023-01-13T13:27:19.830Z,99445.44
2023-01-13T13:29:59.104Z,99431.31
2023-01-13T13:32:27.673Z,99439.84
2023-01-13T13:35:05.218Z,99440.56
2023-01-13T13:38:12.174Z,99443.22
2023-01-13T13:41:00.257Z,99437.31
2023-01-13T13:43:46.355Z,99438.28
2023-01-13T13:46:49.119Z,99446.59
2023-01-13T13:49:18.302Z,99443.94
2023-01-13T13:52:04.349Z,99447.50
2023-01-13T13:54:31.675Z,99469.47
2023-01-13T13:56:58.972Z,99471.88
2023-01-13T13:59:27.238Z,99475.69
2023-01-13T14:02:01.224Z,99494.94
2023-01-13T14:04:38.953Z,99500.44
2023-01-13T14:07:25.604Z,99507.31
2023-01-13T14:09:54.212Z,99511.00
2023-01-13T14:12:23.161Z,99513.13
2023-01-13T14:14:50.651Z,99515.03
2023-01-13T14:17:28.386Z,99507.19
2023-01-13T14:20:17.258Z,99524.38
2023-01-13T14:22:48.289Z,99527.31
2023-01-13T14:25:48.102Z,99547.75
2023-01-13T14:28:22.824Z,99531.38
2023-01-13T14:30:50.713Z,99543.03
2023-01-13T14:33:22.064Z,99558.34
2023-01-13T14:36:07.774Z,99555.78
2023-01-13T14:38:34.153Z,99567.72
2023-01-13T14:41:12.013Z,99570.66
2023-01-13T14:43:43.533Z,99571.19
2023-01-13T14:46:10.216Z,99564.94
2023-01-13T14:48:37.048Z,99573.69
2023-01-13T14:51:05.817Z,99574.84
2023-01-13T14:53:38.899Z,99576.00
2023-01-13T14:56:43.686Z,99580.31
2023-01-13T14:59:36.382Z,99585.00
2023-01-13T15:02:25.382Z,99595.56
2023-01-13T15:04:58.624Z,99590.50
2023-01-13T15:07:27.931Z,99595.13
2023-01-13T15:09:56.687Z,99596.94
2023-01-13T15:12:33.454Z,99609.38
2023-01-13T15:14:59.856Z,99616.34
2023-01-13T15:17:26.381Z,99616.34
2023-01-13T15:19:53.539Z,99622.28
2023-01-13T15:22:19.977Z,99632.81
2023-01-13T15:24:47.813Z,99637.16
2023-01-13T15:27:25.185Z,99618.13
2023-01-13T15:29:51.656Z,99635.09
2023-01-13T15:32:20.283Z,99630.88
2023-01-13T15:34:47.644Z,99629.47
2023-01-13T15:37:17.076Z,99633.72
2023-01-13T15:39:43.839Z,99642.66
2023-01-13T15:42:31.829Z,99631.75
2023-01-13T15:45:16.998Z,99650.22
2023-01-13T15:47:43.880Z,99649.47
2023-01-13T15:50:15.084Z,99649.59
2023-01-13T15:52:41.843Z,99652.22
2023-01-13T15:55:08.386Z,99657.50
2023-01-13T15:57:36.209Z,99652.22
2023-01-13T16:00:11.484Z,99647.13
2023-01-13T16:02:37.949Z,99664.44
2023-01-13T16:05:05.748Z,99661.78
2023-01-13T16:07:32.276Z,99663.59
2023-01-13T16:10:01.624Z,99666.22
2023-01-13T16:12:28.254Z,99666.34
2023-01-13T16:14:54.673Z,99677.72
2023-01-13T16:17:23.892Z,99690.81
2023-01-13T16:19:50.412Z,99696.72
2023-01-13T16:22:17.501Z,99702.88
2023-01-13T16:24:44.253Z,99696.84
2023-01-13T16:27:15.881Z,99709.19
2023-01-13T16:29:42.902Z,99720.09
2023-01-13T16:32:09.367Z,99717.44
2023-01-13T16:34:35.772Z,99716.63
2023-01-13T16:37:02.346Z,99727.78
2023-01-13T16:39:29.264Z,99718.22
2023-01-13T16:41:56.533Z,99713.66
2023-01-13T16:44:23.178Z,99729.38
2023-01-13T16:46:49.803Z,99756.91
2023-01-13T16:49:17.464Z,99751.72
2023-01-13T16:51:43.868Z,99745.25
2023-01-13T16:54:10.352Z,99747.78
2023-01-13T16:56:36.844Z,99755.97
2023-01-13T16:59:16.922Z,99752.97
2023-01-13T17:01:44.794Z,99762.09
2023-01-13T17:04:18.988Z,99764.75
2023-01-13T17:06:57.049Z,99770.75
2023-01-13T17:09:26.133Z,99779.31
2023-01-13T17:11:52.663Z,99774.97
2023-01-13T17:14:21.722Z,99784.78
2023-01-13T17:16:48.276Z,99782.22
2023-01-13T17:19:14.790Z,99798.72
2023-01-13T17:21:41.343Z,99787.22
2023-01-13T17:24:09.478Z,99794.19
2023-01-13T17:26:38.060Z,99783.75
2023-01-13T17:29:11.947Z,99786.41
2023-01-13T17:31:38.527Z,99792.59
2023-01-13T17:34:05.259Z,99796.84
2023-01-13T17:36:32.209Z,99795.91
2023-01-13T17:38:58.869Z,99802.84
2023-01-13T17:41:26.387Z,99809.91
2023-01-13T17:43:53.265Z,99815.47
2023-01-13T17:46:20.533Z,99822.78
2023-01-13T17:48:47.146Z,99820.25
2023-01-13T17:51:15.254Z,99824.59
2023-01-13T17:53:42.851Z,99817.44
2023-01-13T17:56:09.936Z,99823.47
2023-01-13T17:58:37.265Z,99816.50
2023-01-13T18:01:11.847Z,99827.81
2023-01-13T18:03:38.665Z,99839.84
2023-01-13T18:06:06.576Z,99841.34
2023-01-13T18:08:33.261Z,99846.72
2023-01-13T18:11:00.652Z,99842.22
2023-01-13T18:13:28.034Z,99843.06
2023-01-13T18:16:11.420Z,99858.13
2023-01-13T18:18:39.212Z,99855.50
2023-01-13T18:21:24.800Z,99872.81
2023-01-13T18:24:14.592Z,99873.56
2023-01-13T18:26:59.620Z,99873.84
2023-01-13T18:29:26.209Z,99874.13
2023-01-13T18:31:52.633Z,99871.69
2023-01-13T18:34:19.406Z,99880.41
2023-01-13T18:36:45.835Z,99880.41
2023-01-13T18:39:12.323Z,99894.53
2023-01-13T18:41:57.352Z,99896.59
2023-01-13T18:44:23.808Z,99899.31
2023-01-13T18:46:50.379Z,99905.63
2023-01-13T18:49:17.044Z,99903.09
2023-01-13T18:51:43.529Z,99905.88
2023-01-13T18:54:09.922Z,99907.88
2023-01-13T18:56:36.519Z,99921.03
2023-01-13T18:59:03.725Z,99919.50
2023-01-13T19:01:30.422Z,99909.13
2023-01-13T19:03:57.921Z,99925.88
2023-01-13T19:06:26.675Z,99923.16
2023-01-13T19:08:54.980Z,99931.81
2023-01-13T19:11:22.905Z,99937.09
2023-01-13T19:13:52.839Z,99951.06
2023-01-13T19:16:21.371Z,99952.66
2023-01-13T19:18:48.412Z,99949.94
2023-01-13T19:21:15.254Z,99956.03
2023-01-13T19:23:41.722Z,99948.91
2023-01-13T19:26:09.637Z,99953.31
2023-01-13T19:28:39.047Z,99949.94
2023-01-13T19:31:08.393Z,99962.53
2023-01-13T19:33:36.549Z,99958.28
2023-01-13T19:36:04.531Z,99948.47
2023-01-13T19:38:31.164Z,99951.06
2023-01-13T19:40:59.620Z,99965.06
2023-01-13T19:43:45.290Z,99968.72
2023-01-13T19:46:12.643Z,99968.72
2023-01-13T19:48:39.509Z,99987.06
2023-01-13T19:51:06.515Z,99993.03
2023-01-13T19:53:33.295Z,100000.09
2023-01-13T19:55:59.695Z,99992.19
2023-01-13T19:58:26.675Z,99994.97
2023-01-13T20:00:54.073Z,100010.03
2023-01-13T20:03:24.208Z,99998.03
2023-01-13T20:05:52.189Z,99990.31
2023-01-13T20:08:20.059Z,99994.38
2023-01-13T20:10:46.933Z,100001.53
2023-01-13T20:13:13.566Z,100007.75
2023-01-13T20:15:41.058Z,100009.34
2023-01-13T20:18:08.423Z,100012.09
2023-01-13T20:20:35.587Z,100006.97
2023-01-13T20:23:02.043Z,100018.44
2023-01-13T20:25:29.431Z,100022.78
2023-01-13T20:27:56.380Z,100022.88
2023-01-13T20:30:23.399Z,100024.66
2023-01-13T20:32:49.797Z,100024.66
2023-01-13T20:35:17.051Z,100042.75
2023-01-13T20:37:43.719Z,100043.44
2023-01-13T20:40:15.165Z,100039.09
2023-01-13T20:42:44.976Z,100038.06
2023-01-13T20:45:16.894Z,100050.31
2023-01-13T20:47:44.463Z,100044.13
2023-01-13T20:50:11.906Z,100054.75
2023-01-13T20:52:38.317Z,100050.50
2023-01-13T20:55:06.544Z,100056.69
2023-01-13T20:57:33.136Z,100060.16
2023-01-13T20:59:59.699Z,100065.28
2023-01-13T21:02:26.209Z,100072.31
2023-01-13T21:04:52.663Z,100071.41
2023-01-13T21:07:19.111Z,100070.56
2023-01-13T21:09:45.517Z,100078.97
2023-01-13T21:12:33.942Z,100074.63
2023-01-13T21:15:19.919Z,100073.78
2023-01-13T21:18:06.115Z,100069.34
2023-01-13T21:20:34.270Z,100072.09
2023-01-13T21:23:02.182Z,100083.56
2023-01-13T21:25:29.256Z,100074.03
2023-01-13T21:27:59.097Z,100073.19
2023-01-13T21:30:25.660Z,100069.69
2023-01-13T21:32:52.135Z,100067.06
2023-01-13T21:35:18.562Z,100066.13
2023-01-13T21:37:45.005Z,100069.69
2023-01-13T21:40:13.455Z,100074.31
2023-01-13T21:42:58.428Z,100078.59
2023-01-13T21:45:43.623Z,100078.69
2023-01-13T21:48:10.037Z,100084.47
2023-01-13T21:50:38.077Z,100090.72
2023-01-13T21:53:04.948Z,100088.22
2023-01-13T21:55:32.670Z,100092.75
2023-01-13T21:58:01.079Z,100099.69
2023-01-13T22:00:30.156Z,100103.88
2023-01-13T22:02:56.605Z,100096.91
2023-01-13T22:05:24.369Z,100104.03
2023-01-13T22:07:51.364Z,100104.97
2023-01-13T22:10:20.734Z,100118.13
2023-01-13T22:12:47.951Z,100120.13
2023-01-13T22:15:15.814Z,100121.66
2023-01-13T22:17:42.612Z,100115.78
2023-01-13T22:20:10.554Z,100114.75
2023-01-13T22:22:37.099Z,100104.31
2023-01-13T22:25:06.900Z,100106.16
2023-01-13T22:27:40.022Z,100111.59
2023-01-13T22:30:08.951Z,100121.28
2023-01-13T22:32:37.565Z,100124.78
2023-01-13T22:35:05.973Z,100119.66
2023-01-13T22:37:32.666Z,100119.84
2023-01-13T22:39:59.102Z,100125.00
2023-01-13T22:42:25.602Z,100130.38
2023-01-13T22:44:52.185Z,100131.22
2023-01-13T22:47:18.626Z,100118.97
2023-01-13T22:49:47.614Z,100131.13
2023-01-13T22:52:15.402Z,100129.25
2023-01-13T22:54:41.872Z,100127.41
2023-01-13T22:57:08.325Z,100131.06
2023-01-13T22:59:34.778Z,100132.13
2023-01-13T23:02:01.255Z,100143.44
2023-01-13T23:04:27.667Z,100139.13
2023-01-13T23:06:54.154Z,100141.91
2023-01-13T23:09:20.747Z,100125.41
2023-01-13T23:11:47.904Z,100142.25
2023-01-13T23:14:14.467Z,100130.78
2023-01-13T23:16:41.452Z,100132.53
2023-01-13T23:19:08.360Z,100129.81
2023-01-13T23:21:36.556Z,100132.44
2023-01-13T23:24:04.754Z,100145.56
2023-01-13T23:26:32.021Z,100139.53
2023-01-13T23:29:04.593Z,100137.91
2023-01-13T23:31:31.486Z,100132.53
2023-01-13T23:33:57.968Z,100140.44
2023-01-13T23:36:26.277Z,100143.16
2023-01-13T23:38:53.232Z,100143.47
2023-01-13T23:41:24.637Z,100151.25
2023-01-13T23:43:52.950Z,100149.53
2023-01-13T23:46:20.234Z,100144.25
2023-01-13T23:48:46.927Z,100144.50
2023-01-13T23:51:13.658Z,100147.22
2023-01-13T23:53:42.654Z,100134.88
2023-01-13T23:56:22.881Z,100143.56
2023-01-13T23:58:49.879Z,100135.59
